Terminal Aerodrome Forecast
Issued by NWS

Home | Current Version | Previous Version | Text Only | Print | Product List | Glossary Off
Versions: 1 2 3 4 5 6 7 8 9 10 11 12 13 14 15 16 17

000
FTUS43 KGRB 241412 AAA
TAFCWA
TAF AMD
KCWA 241412Z 2414/2512 21008KT 6SM BR VCSH OVC006
      TEMPO 2414/2415 4SM -SHRA BKN009 OVC015
     FM241700 24010G16KT P6SM BKN019
     FM242000 25009G15KT P6SM BKN050
     FM242200 26008G14KT P6SM BKN080
     FM242300 28004KT P6SM SCT200=

USA.gov is the U.S. government's official web portal to all federal, state and local government web resources and services.